createdAt,value
2018-06-24T00:01:56.045Z,3.08
2018-06-24T00:04:24.270Z,3.92
2018-06-24T00:06:52.487Z,3.08
2018-06-24T00:09:20.739Z,3.25
2018-06-24T00:11:49.012Z,4.65
2018-06-24T00:14:17.217Z,4.35
2018-06-24T00:16:45.509Z,6.42
2018-06-24T00:19:13.891Z,3.80
2018-06-24T00:21:42.088Z,3.62
2018-06-24T00:24:10.275Z,4.10
2018-06-24T00:26:38.215Z,4.60
2018-06-24T00:29:06.443Z,5.28
2018-06-24T00:31:34.680Z,5.30
2018-06-24T00:34:02.907Z,3.40
2018-06-24T00:36:30.934Z,5.33
2018-06-24T00:38:59.115Z,3.95
2018-06-24T00:41:27.311Z,5.42
2018-06-24T00:43:55.532Z,4.35
2018-06-24T00:46:23.727Z,2.77
2018-06-24T00:48:51.927Z,4.40
2018-06-24T00:51:20.159Z,3.20
2018-06-24T00:53:48.402Z,4.27
2018-06-24T00:56:16.597Z,4.60
2018-06-24T00:58:44.876Z,4.75
2018-06-24T01:01:13.070Z,3.55
2018-06-24T01:03:41.626Z,3.87
2018-06-24T01:06:09.850Z,4.27
2018-06-24T01:08:37.811Z,5.75
2018-06-24T01:11:06.122Z,4.70
2018-06-24T01:13:34.376Z,4.23
2018-06-24T01:16:02.623Z,5.70
2018-06-24T01:18:30.819Z,4.75
2018-06-24T01:20:59.096Z,4.10
2018-06-24T01:23:27.415Z,3.67
2018-06-24T01:25:55.675Z,5.55
2018-06-24T01:28:23.881Z,3.50
2018-06-24T01:30:51.812Z,3.20
2018-06-24T01:33:20.006Z,3.95
2018-06-24T01:35:48.207Z,4.80
2018-06-24T01:38:16.227Z,3.53
2018-06-24T01:40:44.430Z,4.47
2018-06-24T01:43:12.670Z,3.90
2018-06-24T01:45:40.907Z,6.37
2018-06-24T01:48:08.863Z,5.37
2018-06-24T01:50:37.075Z,3.87
2018-06-24T01:53:05.043Z,5.03
2018-06-24T01:55:32.983Z,3.33
2018-06-24T01:58:01.187Z,5.72
2018-06-24T02:00:29.378Z,3.80
2018-06-24T02:02:57.372Z,3.90
2018-06-24T02:05:25.601Z,6.20
2018-06-24T02:07:53.805Z,4.23
2018-06-24T02:10:21.770Z,5.25
2018-06-24T02:12:49.967Z,4.22
2018-06-24T02:15:17.898Z,5.78
2018-06-24T02:17:46.090Z,5.65
2018-06-24T02:20:14.455Z,5.28
2018-06-24T02:22:42.836Z,5.45
2018-06-24T02:25:11.038Z,4.97
2018-06-24T02:27:39.219Z,3.15
2018-06-24T02:30:07.422Z,4.83
2018-06-24T02:32:35.395Z,4.90
2018-06-24T02:35:03.602Z,4.87
2018-06-24T02:37:31.810Z,3.10
2018-06-24T02:39:59.991Z,4.37
2018-06-24T02:42:28.177Z,5.20
2018-06-24T02:44:56.375Z,3.70
2018-06-24T02:47:24.628Z,5.33
2018-06-24T02:49:52.828Z,6.45
2018-06-24T02:52:21.015Z,5.97
2018-06-24T02:54:49.244Z,3.67
2018-06-24T02:57:17.166Z,4.43
2018-06-24T02:59:45.372Z,5.70
2018-06-24T03:02:13.419Z,7.17
2018-06-24T03:04:42.023Z,6.27
2018-06-24T03:07:09.971Z,5.43
2018-06-24T03:09:38.175Z,6.05
2018-06-24T03:12:06.376Z,5.40
2018-06-24T03:14:34.571Z,6.57
2018-06-24T03:17:02.787Z,5.97
2018-06-24T03:19:30.979Z,5.37
2018-06-24T03:21:59.206Z,6.30
2018-06-24T03:24:27.658Z,6.87
2018-06-24T03:26:55.878Z,8.37
2018-06-24T03:29:24.086Z,6.67
2018-06-24T03:31:52.338Z,5.03
2018-06-24T03:34:20.536Z,9.43
2018-06-24T03:36:48.751Z,6.37
2018-06-24T03:39:16.714Z,5.27
2018-06-24T03:41:44.944Z,10.60
2018-06-24T03:44:13.170Z,7.50
2018-06-24T03:46:41.390Z,10.03
2018-06-24T03:49:09.587Z,4.93
2018-06-24T03:51:37.771Z,7.43
2018-06-24T03:54:05.992Z,7.05
2018-06-24T03:56:34.196Z,7.00
2018-06-24T03:59:02.402Z,6.40
2018-06-24T04:01:30.619Z,8.00
2018-06-24T04:03:59.243Z,7.27
2018-06-24T04:06:27.223Z,7.87
2018-06-24T04:11:19.539Z,7.60
2018-06-24T04:13:47.727Z,7.90
2018-06-24T04:16:15.924Z,6.03
2018-06-24T04:18:44.732Z,8.03
2018-06-24T04:21:13.882Z,8.07
2018-06-24T04:23:43.478Z,8.07
2018-06-24T04:26:12.069Z,8.00
2018-06-24T04:28:40.730Z,6.15
2018-06-24T04:31:09.559Z,9.15
2018-06-24T04:33:37.742Z,7.60
2018-06-24T04:36:06.301Z,8.48
2018-06-24T04:38:34.560Z,5.90
2018-06-24T04:41:02.904Z,6.00
2018-06-24T04:43:31.234Z,7.97
2018-06-24T04:45:59.549Z,7.37
2018-06-24T04:48:27.796Z,5.85
2018-06-24T04:50:55.780Z,8.03
2018-06-24T04:53:23.959Z,9.40
2018-06-24T04:55:52.826Z,7.60
2018-06-24T04:58:21.038Z,6.28
2018-06-24T05:00:49.267Z,7.83
2018-06-24T05:03:17.472Z,5.53
2018-06-24T05:05:45.731Z,6.53
2018-06-24T05:08:13.959Z,6.50
2018-06-24T05:10:42.175Z,8.65
2018-06-24T05:13:10.372Z,6.28
2018-06-24T05:15:38.614Z,7.20
2018-06-24T05:18:06.921Z,6.42
2018-06-24T05:20:35.374Z,7.35
2018-06-24T05:23:03.555Z,8.53
2018-06-24T05:25:31.760Z,6.53
2018-06-24T05:28:00.119Z,6.33
2018-06-24T05:30:28.475Z,8.33
2018-06-24T05:32:56.488Z,8.30
2018-06-24T05:35:24.686Z,7.28
2018-06-24T05:37:52.995Z,7.83
2018-06-24T05:40:21.191Z,8.33
2018-06-24T05:42:49.213Z,7.72
2018-06-24T05:45:17.399Z,6.67
2018-06-24T05:47:45.571Z,8.60
2018-06-24T05:50:13.830Z,7.60
2018-06-24T05:52:43.440Z,7.87
2018-06-24T05:55:11.745Z,8.50
2018-06-24T05:57:40.248Z,10.03
2018-06-24T06:00:10.391Z,6.50
2018-06-24T06:02:38.602Z,7.10
2018-06-24T06:05:06.792Z,7.53
2018-06-24T06:07:35.003Z,5.25
2018-06-24T06:10:03.387Z,6.25
2018-06-24T06:12:31.539Z,8.65
2018-06-24T06:14:59.725Z,7.05
2018-06-24T06:17:27.939Z,8.43
2018-06-24T06:19:56.143Z,7.20
2018-06-24T06:22:24.339Z,6.72
2018-06-24T06:24:52.533Z,7.17
2018-06-24T06:27:20.751Z,7.95
2018-06-24T06:29:49.039Z,6.75
2018-06-24T06:32:17.235Z,4.83
2018-06-24T06:34:45.236Z,5.35
2018-06-24T06:37:13.456Z,5.90
2018-06-24T06:39:41.981Z,6.62
2018-06-24T06:42:09.939Z,6.33
2018-06-24T06:44:38.180Z,6.50
2018-06-24T06:47:06.400Z,6.75
2018-06-24T06:49:34.655Z,6.12
2018-06-24T06:52:02.884Z,6.28
2018-06-24T06:54:30.831Z,9.13
2018-06-24T06:56:59.044Z,8.20
2018-06-24T06:59:27.006Z,6.33
2018-06-24T07:01:54.999Z,5.80
2018-06-24T07:04:23.173Z,6.55
2018-06-24T07:06:51.138Z,5.83
2018-06-24T07:09:19.136Z,4.78
2018-06-24T07:11:47.308Z,5.55
2018-06-24T07:14:15.599Z,6.45
2018-06-24T07:16:43.810Z,9.50
2018-06-24T07:19:11.988Z,5.05
2018-06-24T07:21:40.196Z,4.25
2018-06-24T07:24:08.390Z,7.90
2018-06-24T07:26:36.355Z,4.37
2018-06-24T07:29:04.314Z,5.92
2018-06-24T07:31:32.668Z,5.62
2018-06-24T07:34:01.419Z,5.55
2018-06-24T07:36:29.614Z,5.50
2018-06-24T07:38:57.828Z,5.05
2018-06-24T07:41:26.040Z,3.90
2018-06-24T07:43:54.278Z,4.22
2018-06-24T07:46:22.491Z,4.70
2018-06-24T07:48:50.676Z,2.80
2018-06-24T07:51:18.874Z,2.67
2018-06-24T07:53:47.076Z,2.92
2018-06-24T07:56:15.283Z,4.05
2018-06-24T07:58:43.484Z,1.85
2018-06-24T08:01:11.859Z,5.40
2018-06-24T08:03:40.063Z,4.53
2018-06-24T08:06:08.031Z,5.05
2018-06-24T08:08:36.287Z,4.20
2018-06-24T08:11:04.592Z,2.40
2018-06-24T08:13:32.582Z,3.10
2018-06-24T08:16:00.815Z,3.08
2018-06-24T08:18:29.004Z,5.53
2018-06-24T08:20:57.205Z,3.22
2018-06-24T08:23:25.456Z,4.80
2018-06-24T08:25:53.699Z,2.72
2018-06-24T08:28:22.167Z,2.17
2018-06-24T08:30:50.386Z,2.98
2018-06-24T08:33:18.871Z,4.25
2018-06-24T08:35:47.099Z,3.22
2018-06-24T08:38:15.299Z,3.52
2018-06-24T08:43:03.413Z,3.12
2018-06-24T08:45:31.649Z,5.53
2018-06-24T08:47:59.654Z,2.25
2018-06-24T08:50:27.950Z,1.87
2018-06-24T08:52:56.162Z,2.60
2018-06-24T08:55:24.142Z,1.45
2018-06-24T08:57:52.149Z,1.45
2018-06-24T09:00:20.378Z,3.50
2018-06-24T09:02:48.599Z,1.50
2018-06-24T09:05:16.548Z,1.80
2018-06-24T09:07:44.795Z,1.90
2018-06-24T09:10:13.013Z,3.25
2018-06-24T09:12:41.267Z,2.15
2018-06-24T09:15:09.511Z,3.02
2018-06-24T09:17:37.697Z,1.80
2018-06-24T09:20:05.928Z,1.50
2018-06-24T09:22:33.939Z,1.70
2018-06-24T09:25:02.160Z,1.12
2018-06-24T09:27:30.369Z,1.52
2018-06-24T09:29:58.603Z,2.12
2018-06-24T09:32:26.812Z,2.45
2018-06-24T09:34:55.105Z,3.85
2018-06-24T09:37:23.384Z,3.10
2018-06-24T09:39:51.386Z,1.70
2018-06-24T09:42:19.631Z,1.10
2018-06-24T09:44:47.835Z,2.20
2018-06-24T09:47:16.051Z,1.07
2018-06-24T09:49:44.275Z,1.05
2018-06-24T09:52:12.470Z,1.85
2018-06-24T09:54:40.699Z,1.02
2018-06-24T09:57:08.920Z,1.05
2018-06-24T09:59:36.930Z,2.98
2018-06-24T10:02:05.165Z,3.12
2018-06-24T10:04:33.422Z,1.00
2018-06-24T10:07:01.718Z,1.40
2018-06-24T10:09:29.959Z,1.55
2018-06-24T10:11:58.180Z,1.10
2018-06-24T10:14:26.437Z,1.80
2018-06-24T10:16:54.679Z,1.57
2018-06-24T10:19:23.611Z,1.12
2018-06-24T10:21:52.214Z,2.17
2018-06-24T10:24:20.449Z,1.17
2018-06-24T10:26:48.420Z,1.25
2018-06-24T10:29:16.375Z,1.25
2018-06-24T10:31:44.675Z,1.77
2018-06-24T10:34:12.914Z,1.55
2018-06-24T10:36:41.335Z,1.37
2018-06-24T10:39:11.148Z,0.95
2018-06-24T10:41:39.559Z,1.60
2018-06-24T10:44:08.019Z,1.32
2018-06-24T10:46:36.572Z,2.55
2018-06-24T10:49:04.873Z,2.08
2018-06-24T10:51:33.100Z,1.10
2018-06-24T10:54:01.327Z,1.70
2018-06-24T10:56:29.550Z,1.90
2018-06-24T10:58:58.054Z,2.58
2018-06-24T11:01:26.658Z,1.02
2018-06-24T11:03:54.903Z,1.82
2018-06-24T11:06:23.161Z,0.68
2018-06-24T11:08:51.762Z,1.82
2018-06-24T11:11:20.016Z,1.10
2018-06-24T11:13:48.333Z,2.10
2018-06-24T11:16:16.766Z,1.20
2018-06-24T11:18:44.956Z,1.10
2018-06-24T11:21:14.018Z,1.37
2018-06-24T11:23:41.307Z,1.62
2018-06-24T11:26:09.512Z,1.10
2018-06-24T11:28:37.455Z,1.30
2018-06-24T11:31:06.061Z,0.88
2018-06-24T11:33:34.190Z,1.47
2018-06-24T11:36:02.464Z,1.02
2018-06-24T11:38:30.800Z,1.10
2018-06-24T11:40:59.013Z,1.32
2018-06-24T11:43:27.251Z,1.77
2018-06-24T11:45:55.495Z,1.17
2018-06-24T11:48:23.796Z,1.00
2018-06-24T11:50:52.181Z,0.90
2018-06-24T11:53:20.463Z,1.40
2018-06-24T11:55:49.146Z,0.98
2018-06-24T11:58:17.384Z,1.00
2018-06-24T12:00:45.342Z,1.15
2018-06-24T12:03:13.606Z,0.90
2018-06-24T12:05:41.823Z,1.12
2018-06-24T12:08:10.166Z,0.88
2018-06-24T12:10:38.394Z,1.60
2018-06-24T12:13:06.635Z,2.00
2018-06-24T12:15:35.059Z,0.78
2018-06-24T12:18:03.320Z,1.55
2018-06-24T12:20:31.529Z,1.15
2018-06-24T12:22:59.880Z,0.90
2018-06-24T12:25:28.134Z,1.02
2018-06-24T12:27:56.971Z,0.90
2018-06-24T12:30:25.059Z,0.95
2018-06-24T12:32:53.242Z,1.22
2018-06-24T12:35:21.440Z,0.90
2018-06-24T12:37:49.747Z,1.95
2018-06-24T12:40:36.785Z,0.80
2018-06-24T12:43:04.963Z,1.72
2018-06-24T12:45:33.570Z,0.95
2018-06-24T12:48:01.870Z,1.10
2018-06-24T12:50:30.092Z,1.22
2018-06-24T12:52:58.496Z,1.20
2018-06-24T12:55:26.451Z,0.82
2018-06-24T12:57:55.077Z,1.20
2018-06-24T13:00:23.852Z,1.10
2018-06-24T13:02:51.575Z,1.00
2018-06-24T13:05:19.805Z,1.77
2018-06-24T13:07:47.822Z,1.57
2018-06-24T13:12:53.162Z,0.88
2018-06-24T13:15:21.422Z,1.10
2018-06-24T13:17:49.606Z,1.55
2018-06-24T13:20:17.852Z,1.35
2018-06-24T13:22:46.035Z,2.35
2018-06-24T13:25:14.219Z,5.10
2018-06-24T13:27:42.419Z,3.72
2018-06-24T13:30:10.904Z,2.05
2018-06-24T13:32:39.139Z,1.60
2018-06-24T13:35:07.335Z,1.60
2018-06-24T13:37:35.580Z,2.95
2018-06-24T13:40:03.799Z,1.20
2018-06-24T13:42:32.248Z,2.92
2018-06-24T13:45:00.443Z,1.30
2018-06-24T13:47:28.631Z,3.10
2018-06-24T13:49:56.818Z,1.90
2018-06-24T13:52:25.022Z,1.42
2018-06-24T13:54:53.017Z,2.52
2018-06-24T13:57:21.216Z,1.70
2018-06-24T13:59:49.399Z,2.60
2018-06-24T14:02:17.566Z,1.25
2018-06-24T14:04:45.755Z,1.40
2018-06-24T14:07:13.955Z,1.32
2018-06-24T14:09:42.175Z,2.12
2018-06-24T14:12:10.375Z,0.93
2018-06-24T14:14:38.583Z,1.47
2018-06-24T14:17:06.775Z,1.90
2018-06-24T14:19:34.971Z,2.22
2018-06-24T14:22:03.177Z,1.98
2018-06-24T14:24:31.143Z,2.08
2018-06-24T14:26:59.140Z,1.95
2018-06-24T14:29:27.383Z,2.65
2018-06-24T14:31:55.593Z,2.02
2018-06-24T14:34:23.831Z,2.45
2018-06-24T14:36:52.115Z,2.25
2018-06-24T14:39:22.745Z,1.98
2018-06-24T14:41:51.663Z,1.90
2018-06-24T14:44:20.791Z,2.05
2018-06-24T14:46:49.666Z,1.22
2018-06-24T14:49:18.700Z,2.87
2018-06-24T14:51:46.959Z,1.98
2018-06-24T14:54:15.451Z,2.50
2018-06-24T14:56:43.679Z,2.55
2018-06-24T14:59:11.871Z,2.20
2018-06-24T15:01:40.109Z,2.20
2018-06-24T15:04:08.310Z,1.67
2018-06-24T15:06:36.503Z,2.90
2018-06-24T15:09:07.372Z,4.33
2018-06-24T15:11:35.655Z,2.62
2018-06-24T15:14:03.857Z,4.70
2018-06-24T15:16:32.060Z,5.00
2018-06-24T15:19:00.336Z,2.60
2018-06-24T15:21:28.531Z,2.02
2018-06-24T15:23:56.738Z,3.10
2018-06-24T15:26:24.931Z,1.45
2018-06-24T15:28:53.140Z,2.02
2018-06-24T15:31:21.317Z,1.92
2018-06-24T15:33:49.531Z,2.83
2018-06-24T15:36:17.801Z,2.58
2018-06-24T15:38:45.974Z,2.75
2018-06-24T15:41:14.255Z,2.27
2018-06-24T15:43:42.434Z,3.25
2018-06-24T15:46:10.800Z,1.80
2018-06-24T15:48:41.704Z,2.12
2018-06-24T15:51:09.736Z,2.37
2018-06-24T15:53:37.936Z,1.77
2018-06-24T15:56:06.248Z,3.35
2018-06-24T15:58:34.238Z,2.58
2018-06-24T16:01:02.191Z,3.02
2018-06-24T16:03:30.177Z,3.30
2018-06-24T16:05:58.130Z,3.55
2018-06-24T16:08:26.080Z,2.00
2018-06-24T16:10:54.373Z,4.85
2018-06-24T16:13:22.690Z,2.30
2018-06-24T16:15:50.882Z,3.02
2018-06-24T16:18:19.294Z,2.05
2018-06-24T16:20:47.745Z,3.70
2018-06-24T16:23:15.550Z,3.40
2018-06-24T16:25:43.817Z,4.37
2018-06-24T16:28:12.356Z,2.95
2018-06-24T16:30:40.588Z,1.92
2018-06-24T16:33:08.904Z,2.80
2018-06-24T16:35:37.312Z,4.37
2018-06-24T16:38:05.263Z,3.12
2018-06-24T16:40:33.467Z,4.05
2018-06-24T16:43:01.530Z,4.28
2018-06-24T16:45:29.694Z,2.20
2018-06-24T16:47:58.078Z,2.00
2018-06-24T16:50:26.275Z,4.20
2018-06-24T16:52:54.287Z,1.77
2018-06-24T16:55:22.490Z,3.80
2018-06-24T16:57:50.679Z,3.83
2018-06-24T17:00:18.924Z,2.27
2018-06-24T17:02:47.147Z,3.17
2018-06-24T17:05:15.358Z,2.30
2018-06-24T17:07:43.369Z,3.50
2018-06-24T17:10:11.564Z,6.22
2018-06-24T17:12:39.770Z,4.62
2018-06-24T17:15:08.006Z,2.72
2018-06-24T17:17:36.223Z,3.37
2018-06-24T17:20:04.440Z,1.42
2018-06-24T17:22:32.430Z,3.33
2018-06-24T17:25:00.632Z,4.17
2018-06-24T17:27:28.847Z,2.02
2018-06-24T17:29:57.039Z,2.45
2018-06-24T17:32:25.003Z,3.17
2018-06-24T17:34:52.974Z,3.75
2018-06-24T17:37:21.195Z,1.92
2018-06-24T17:39:49.163Z,3.65
2018-06-24T17:42:17.367Z,2.22
2018-06-24T17:44:45.593Z,3.50
2018-06-24T17:47:13.749Z,2.22
2018-06-24T17:49:42.222Z,1.98
2018-06-24T17:52:10.887Z,1.92
2018-06-24T17:54:39.122Z,3.27
2018-06-24T17:57:07.463Z,2.15
2018-06-24T17:59:35.652Z,2.35
2018-06-24T18:02:03.880Z,2.45
2018-06-24T18:04:32.466Z,1.85
2018-06-24T18:07:00.515Z,2.05
2018-06-24T18:09:28.698Z,3.08
2018-06-24T18:11:56.891Z,2.60
2018-06-24T18:14:25.298Z,1.90
2018-06-24T18:16:53.266Z,3.75
2018-06-24T18:19:21.496Z,3.55
2018-06-24T18:21:49.699Z,4.50
2018-06-24T18:24:17.923Z,2.10
2018-06-24T18:26:46.143Z,2.85
2018-06-24T18:29:14.335Z,2.90
2018-06-24T18:31:42.607Z,1.42
2018-06-24T18:34:10.801Z,2.27
2018-06-24T18:36:39.036Z,1.82
2018-06-24T18:39:08.291Z,3.12
2018-06-24T18:41:36.522Z,3.45
2018-06-24T18:44:04.741Z,1.40
2018-06-24T18:46:33.071Z,3.10
2018-06-24T18:49:01.308Z,1.52
2018-06-24T18:51:29.624Z,2.72
2018-06-24T18:53:57.554Z,2.22
2018-06-24T18:56:25.764Z,1.75
2018-06-24T18:58:53.715Z,4.33
2018-06-24T19:01:21.962Z,4.15
2018-06-24T19:03:50.155Z,2.50
2018-06-24T19:06:18.339Z,2.17
2018-06-24T19:08:47.208Z,1.62
2018-06-24T19:11:15.500Z,2.85
2018-06-24T19:13:43.691Z,3.15
2018-06-24T19:16:11.948Z,3.60
2018-06-24T19:18:40.157Z,4.60
2018-06-24T19:21:08.352Z,2.85
2018-06-24T19:23:36.595Z,4.08
2018-06-24T19:26:05.057Z,5.62
2018-06-24T19:28:33.248Z,3.55
2018-06-24T19:31:01.472Z,2.60
2018-06-24T19:33:29.667Z,2.55
2018-06-24T19:35:57.665Z,4.83
2018-06-24T19:38:25.871Z,6.28
2018-06-24T19:40:54.063Z,4.30
2018-06-24T19:43:22.293Z,4.40
2018-06-24T19:45:50.553Z,3.15
2018-06-24T19:48:18.744Z,2.72
2018-06-24T19:50:46.963Z,4.40
2018-06-24T19:53:15.363Z,3.40
2018-06-24T19:55:43.566Z,4.22
2018-06-24T19:58:11.742Z,16.07
2018-06-24T20:00:39.978Z,17.45
2018-06-24T20:03:08.210Z,16.00
2018-06-24T20:05:36.432Z,6.40
2018-06-24T20:08:04.638Z,5.65
2018-06-24T20:10:32.899Z,6.55
2018-06-24T20:13:01.188Z,7.55
2018-06-24T20:15:29.521Z,7.20
2018-06-24T20:17:57.848Z,6.53
2018-06-24T20:20:26.204Z,5.85
2018-06-24T20:22:54.400Z,5.00
2018-06-24T20:25:22.672Z,4.00
2018-06-24T20:27:50.944Z,2.83
2018-06-24T20:30:19.035Z,3.47
2018-06-24T20:32:47.251Z,3.58
2018-06-24T20:35:15.476Z,4.42
2018-06-24T20:37:43.654Z,3.45
2018-06-24T20:40:11.914Z,5.47
2018-06-24T20:42:40.204Z,5.55
2018-06-24T20:45:08.466Z,2.42
2018-06-24T20:47:36.651Z,2.83
2018-06-24T20:50:04.900Z,2.45
2018-06-24T20:52:33.096Z,2.90
2018-06-24T20:55:01.818Z,3.95
2018-06-24T20:57:29.772Z,3.92
2018-06-24T20:59:58.109Z,2.92
2018-06-24T21:02:26.397Z,5.15
2018-06-24T21:04:54.704Z,3.33
2018-06-24T21:07:22.919Z,4.17
2018-06-24T21:09:51.280Z,2.30
2018-06-24T21:12:19.689Z,3.12
2018-06-24T21:14:47.899Z,4.40
2018-06-24T21:17:16.132Z,2.95
2018-06-24T21:19:44.315Z,3.12
2018-06-24T21:22:12.591Z,3.17
2018-06-24T21:24:44.233Z,2.17
2018-06-24T21:27:12.609Z,2.58
2018-06-24T21:29:41.348Z,2.52
2018-06-24T21:32:09.751Z,3.55
2018-06-24T21:34:38.970Z,3.60
2018-06-24T21:37:07.199Z,3.58
2018-06-24T21:39:35.554Z,3.10
2018-06-24T21:42:03.824Z,2.77
2018-06-24T21:44:32.001Z,3.05
2018-06-24T21:47:00.243Z,3.05
2018-06-24T21:49:28.659Z,4.72
2018-06-24T21:51:56.906Z,4.80
2018-06-24T21:54:24.889Z,4.00
2018-06-24T21:56:53.359Z,2.92
2018-06-24T21:59:21.883Z,5.12
2018-06-24T22:01:50.083Z,3.87
2018-06-24T22:04:18.584Z,2.92
2018-06-24T22:06:47.289Z,2.10
2018-06-24T22:09:15.528Z,2.05
2018-06-24T22:11:43.744Z,2.98
2018-06-24T22:14:12.025Z,2.52
2018-06-24T22:16:40.403Z,3.47
2018-06-24T22:19:09.151Z,3.45
2018-06-24T22:21:37.351Z,7.95
2018-06-24T22:24:05.764Z,9.45
2018-06-24T22:26:34.071Z,2.50
2018-06-24T22:29:02.279Z,2.45
2018-06-24T22:31:30.575Z,2.37
2018-06-24T22:33:58.838Z,2.25
2018-06-24T22:36:27.201Z,2.25
2018-06-24T22:38:55.507Z,2.45
2018-06-24T22:41:23.863Z,5.20
2018-06-24T22:43:52.071Z,4.33
2018-06-24T22:46:20.275Z,2.98
2018-06-24T22:48:48.474Z,2.72
2018-06-24T22:51:16.739Z,3.25
2018-06-24T22:53:44.951Z,4.62
2018-06-24T22:56:13.179Z,3.33
2018-06-24T22:58:41.758Z,8.73
2018-06-24T23:01:09.932Z,2.60
2018-06-24T23:03:38.154Z,3.92
2018-06-24T23:06:06.339Z,3.10
2018-06-24T23:08:34.561Z,3.08
2018-06-24T23:11:02.784Z,3.25
2018-06-24T23:13:31.055Z,3.77
2018-06-24T23:15:59.262Z,3.17
2018-06-24T23:18:27.900Z,3.70
2018-06-24T23:20:56.076Z,3.12
2018-06-24T23:23:24.278Z,4.67
2018-06-24T23:25:52.588Z,4.80
2018-06-24T23:28:20.776Z,3.72
2018-06-24T23:30:48.948Z,4.95
2018-06-24T23:33:17.147Z,3.77
2018-06-24T23:35:45.088Z,3.40
2018-06-24T23:38:13.290Z,4.65
2018-06-24T23:40:41.333Z,3.60
2018-06-24T23:43:09.507Z,3.72
2018-06-24T23:45:37.690Z,2.55
2018-06-24T23:48:06.099Z,4.03
2018-06-24T23:50:34.327Z,4.25
2018-06-24T23:53:02.536Z,3.45
2018-06-24T23:55:30.771Z,3.10
2018-06-24T23:57:58.959Z,3.12
